createdAt,value
2022-12-06T00:01:25.951Z,272.80
2022-12-06T00:03:55.487Z,266.65
2022-12-06T00:06:25.639Z,291.35
2022-12-06T00:08:53.755Z,248.45
2022-12-06T00:13:55.634Z,429.67
2022-12-06T00:16:24.679Z,205.63
2022-12-06T00:18:52.980Z,134.00
2022-12-06T00:21:22.595Z,116.70
2022-12-06T00:23:52.132Z,224.30
2022-12-06T00:26:20.602Z,250.00
2022-12-06T00:28:48.526Z,282.50
2022-12-06T00:31:20.052Z,387.17
2022-12-06T00:33:47.685Z,201.18
2022-12-06T00:36:16.906Z,151.30
2022-12-06T00:38:44.723Z,141.07
2022-12-06T00:41:14.177Z,105.70
2022-12-06T00:43:41.825Z,138.18
2022-12-06T00:46:13.156Z,125.90
2022-12-06T00:48:42.291Z,157.00
2022-12-06T00:51:10.105Z,160.55
2022-12-06T00:53:37.745Z,169.02
2022-12-06T00:56:05.856Z,171.43
2022-12-06T00:58:33.760Z,167.05
2022-12-06T01:01:09.382Z,173.35
2022-12-06T01:03:37.110Z,155.55
2022-12-06T01:06:07.343Z,150.73
2022-12-06T01:08:35.645Z,180.05
2022-12-06T01:11:03.843Z,162.90
2022-12-06T01:13:31.623Z,168.52
2022-12-06T01:16:05.620Z,164.77
2022-12-06T01:18:33.108Z,168.40
2022-12-06T01:21:06.424Z,166.35
2022-12-06T01:23:33.985Z,182.43
2022-12-06T01:26:01.675Z,174.85
2022-12-06T01:28:29.352Z,153.38
2022-12-06T01:30:56.879Z,160.05
2022-12-06T01:33:28.079Z,157.60
2022-12-06T01:35:55.559Z,145.75
2022-12-06T01:38:24.392Z,155.80
2022-12-06T01:40:52.133Z,158.45
2022-12-06T01:43:37.349Z,169.93
2022-12-06T01:46:13.988Z,139.40
2022-12-06T01:48:42.456Z,139.00
2022-12-06T01:51:12.943Z,157.63
2022-12-06T01:53:45.017Z,141.63
2022-12-06T01:56:12.756Z,131.77
2022-12-06T01:58:42.382Z,106.45
2022-12-06T02:01:11.343Z,118.28
2022-12-06T02:03:39.332Z,113.88
2022-12-06T02:06:09.407Z,124.20
2022-12-06T02:08:38.112Z,126.95
2022-12-06T02:11:07.218Z,117.75
2022-12-06T02:13:36.326Z,125.55
2022-12-06T02:16:16.490Z,136.93
2022-12-06T02:18:50.844Z,132.20
2022-12-06T02:21:27.969Z,139.05
2022-12-06T02:24:36.266Z,134.50
2022-12-06T02:27:22.034Z,118.65
2022-12-06T02:30:08.449Z,133.88
2022-12-06T02:32:49.221Z,127.55
2022-12-06T02:35:28.518Z,147.60
2022-12-06T02:38:06.648Z,151.55
2022-12-06T02:40:39.443Z,169.77
2022-12-06T02:43:10.705Z,160.35
2022-12-06T02:45:43.974Z,153.15
2022-12-06T02:48:15.352Z,148.98
2022-12-06T02:50:47.544Z,126.53
2022-12-06T02:53:18.529Z,102.38
2022-12-06T02:55:47.431Z,120.32
2022-12-06T02:58:14.894Z,110.32
2022-12-06T03:00:44.587Z,103.60
2022-12-06T03:03:25.441Z,116.22
2022-12-06T03:06:34.422Z,112.47
2022-12-06T03:09:10.587Z,105.03
2022-12-06T03:11:51.293Z,118.57
2022-12-06T03:14:22.319Z,123.07
2022-12-06T03:16:55.255Z,143.30
2022-12-06T03:19:26.578Z,127.25
2022-12-06T03:21:59.867Z,137.40
2022-12-06T03:24:29.483Z,128.65
2022-12-06T03:27:00.712Z,122.88
2022-12-06T03:29:31.693Z,134.75
2022-12-06T03:32:02.996Z,137.25
2022-12-06T03:34:37.331Z,118.65
2022-12-06T03:37:07.279Z,128.63
2022-12-06T03:39:39.875Z,127.57
2022-12-06T03:42:08.318Z,163.63
2022-12-06T03:44:36.461Z,165.85
2022-12-06T03:49:42.989Z,106.38
2022-12-06T03:52:10.927Z,127.03
2022-12-06T03:54:39.797Z,136.93
2022-12-06T03:57:07.537Z,121.97
2022-12-06T03:59:35.052Z,133.15
2022-12-06T04:02:02.574Z,122.88
2022-12-06T04:04:30.147Z,139.38
2022-12-06T04:06:58.955Z,131.70
2022-12-06T04:09:43.923Z,153.57
2022-12-06T04:12:25.384Z,142.82
2022-12-06T04:14:52.854Z,150.90
2022-12-06T04:17:37.945Z,154.95
2022-12-06T04:20:06.728Z,135.43
2022-12-06T04:22:53.377Z,124.85
2022-12-06T04:25:20.978Z,125.90
2022-12-06T04:28:02.396Z,152.18
2022-12-06T04:30:47.300Z,150.02
2022-12-06T04:33:32.526Z,148.35
2022-12-06T04:36:17.389Z,110.28
2022-12-06T04:38:46.195Z,118.78
2022-12-06T04:41:35.146Z,104.15
2022-12-06T04:44:01.682Z,106.85
2022-12-06T04:46:29.269Z,115.45
2022-12-06T04:48:56.895Z,118.95
2022-12-06T04:51:25.262Z,115.68
2022-12-06T04:53:54.186Z,123.32
2022-12-06T04:56:22.006Z,135.25
2022-12-06T04:58:49.500Z,136.50
2022-12-06T05:01:17.041Z,137.05
2022-12-06T05:03:44.738Z,141.90
2022-12-06T05:06:12.527Z,129.70
2022-12-06T05:08:40.094Z,136.10
2022-12-06T05:11:08.988Z,128.68
2022-12-06T05:13:36.864Z,116.25
2022-12-06T05:16:06.695Z,110.65
2022-12-06T05:18:35.106Z,128.85
2022-12-06T05:21:04.125Z,110.75
2022-12-06T05:23:31.586Z,108.03
2022-12-06T05:26:00.283Z,111.85
2022-12-06T05:28:29.927Z,120.28
2022-12-06T05:30:57.645Z,105.53
2022-12-06T05:33:25.992Z,111.72
2022-12-06T05:35:53.759Z,124.47
2022-12-06T05:38:21.505Z,103.60
2022-12-06T05:40:49.011Z,105.10
2022-12-06T05:43:17.331Z,102.20
2022-12-06T05:45:46.165Z,110.95
2022-12-06T05:48:13.662Z,114.60
2022-12-06T05:50:41.142Z,102.55
2022-12-06T05:53:08.627Z,99.53
2022-12-06T05:55:36.121Z,110.20
2022-12-06T05:58:03.593Z,98.75
2022-12-06T06:00:31.088Z,124.90
2022-12-06T06:03:00.065Z,127.20
2022-12-06T06:05:27.710Z,131.63
2022-12-06T06:07:55.579Z,128.25
2022-12-06T06:10:23.219Z,115.82
2022-12-06T06:12:50.868Z,114.18
2022-12-06T06:15:18.891Z,116.35
2022-12-06T06:20:15.218Z,117.03
2022-12-06T06:22:43.233Z,119.43
2022-12-06T06:30:08.739Z,77.75
2022-12-06T06:32:36.411Z,115.82
2022-12-06T06:35:05.210Z,131.75
2022-12-06T06:37:34.418Z,123.20
2022-12-06T06:40:02.644Z,107.97
2022-12-06T06:42:30.460Z,100.10
2022-12-06T06:44:57.953Z,125.95
2022-12-06T06:47:25.423Z,109.80
2022-12-06T06:49:52.892Z,113.15
2022-12-06T06:52:20.605Z,131.57
2022-12-06T06:54:49.442Z,125.90
2022-12-06T06:57:18.300Z,133.43
2022-12-06T06:59:45.819Z,128.73
2022-12-06T07:02:14.122Z,131.02
2022-12-06T07:04:42.324Z,118.45
2022-12-06T07:07:10.039Z,117.35
2022-12-06T07:09:37.788Z,116.00
2022-12-06T07:12:07.086Z,127.93
2022-12-06T07:14:34.828Z,102.88
2022-12-06T07:17:02.543Z,121.45
2022-12-06T07:19:30.107Z,95.90
2022-12-06T07:21:57.588Z,111.38
2022-12-06T07:24:25.106Z,102.50
2022-12-06T07:26:52.568Z,82.07
2022-12-06T07:29:21.393Z,100.47
2022-12-06T07:31:49.819Z,101.57
2022-12-06T07:34:17.435Z,106.15
2022-12-06T07:36:44.929Z,90.15
2022-12-06T07:39:15.007Z,91.25
2022-12-06T07:42:00.607Z,99.03
2022-12-06T07:44:47.400Z,86.65
2022-12-06T07:47:14.926Z,90.80
2022-12-06T07:49:42.502Z,119.07
2022-12-06T07:52:09.991Z,119.38
2022-12-06T07:54:37.505Z,101.45
2022-12-06T07:57:05.016Z,78.93
2022-12-06T07:59:34.931Z,114.80
2022-12-06T08:02:02.533Z,70.93
2022-12-06T08:04:30.302Z,85.93
2022-12-06T08:06:57.808Z,82.90
2022-12-06T08:09:25.369Z,96.28
2022-12-06T08:11:52.882Z,106.82
2022-12-06T08:14:20.373Z,100.43
2022-12-06T08:16:49.217Z,115.90
2022-12-06T08:19:16.843Z,135.90
2022-12-06T08:21:45.524Z,110.65
2022-12-06T08:24:13.542Z,108.53
2022-12-06T08:29:08.471Z,87.80
2022-12-06T08:31:36.162Z,91.47
2022-12-06T08:34:05.727Z,100.05
2022-12-06T08:36:34.195Z,106.47
2022-12-06T08:39:02.011Z,110.55
2022-12-06T08:41:47.008Z,119.63
2022-12-06T08:44:16.231Z,113.40
2022-12-06T08:46:44.152Z,111.47
2022-12-06T08:49:14.273Z,109.00
2022-12-06T08:51:41.967Z,114.85
2022-12-06T08:54:10.721Z,110.22
2022-12-06T08:56:38.360Z,117.22
2022-12-06T08:59:06.134Z,103.90
2022-12-06T09:01:38.222Z,107.90
2022-12-06T09:04:08.160Z,121.47
2022-12-06T09:06:38.686Z,121.95
2022-12-06T09:09:06.530Z,116.15
2022-12-06T09:11:34.042Z,110.63
2022-12-06T09:14:01.544Z,100.30
2022-12-06T09:16:29.205Z,105.80
2022-12-06T09:18:56.751Z,105.40
2022-12-06T09:21:25.950Z,105.47
2022-12-06T09:23:57.759Z,102.05
2022-12-06T09:26:25.993Z,102.45
2022-12-06T09:28:55.697Z,113.88
2022-12-06T09:31:23.290Z,120.43
2022-12-06T09:33:51.171Z,127.45
2022-12-06T09:36:22.184Z,141.85
2022-12-06T09:38:54.573Z,122.80
2022-12-06T09:41:40.319Z,141.13
2022-12-06T09:44:25.362Z,138.57
2022-12-06T09:47:04.071Z,170.63
2022-12-06T09:49:33.256Z,154.95
2022-12-06T09:52:25.436Z,153.30
2022-12-06T09:55:07.365Z,201.93
2022-12-06T09:57:43.550Z,199.32
2022-12-06T10:00:20.610Z,169.90
2022-12-06T10:03:19.426Z,169.73
2022-12-06T10:06:02.698Z,174.88
2022-12-06T10:08:53.059Z,175.57
2022-12-06T10:11:32.232Z,184.38
2022-12-06T10:14:13.689Z,173.38
2022-12-06T10:16:54.597Z,166.18
2022-12-06T10:19:34.627Z,196.55
2022-12-06T10:22:12.392Z,183.20
2022-12-06T10:24:49.916Z,192.77
2022-12-06T10:27:23.928Z,181.60
2022-12-06T10:29:57.604Z,183.88
2022-12-06T10:32:41.553Z,159.60
2022-12-06T10:35:19.202Z,170.77
2022-12-06T10:37:57.014Z,163.88
2022-12-06T10:40:33.121Z,175.18
2022-12-06T10:43:11.203Z,174.48
2022-12-06T10:46:08.502Z,180.95
2022-12-06T10:48:42.443Z,144.02
2022-12-06T10:51:15.226Z,148.90
2022-12-06T10:53:49.308Z,157.32
2022-12-06T10:56:21.301Z,151.77
2022-12-06T10:58:55.036Z,145.32
2022-12-06T11:01:28.162Z,128.63
2022-12-06T11:04:01.171Z,157.15
2022-12-06T11:06:33.029Z,136.23
2022-12-06T11:09:05.694Z,134.55
2022-12-06T11:11:36.344Z,134.52
2022-12-06T11:14:07.978Z,141.18
2022-12-06T11:16:40.907Z,155.30
2022-12-06T11:19:21.385Z,149.57
2022-12-06T11:21:57.461Z,128.77
2022-12-06T11:24:31.720Z,133.18
2022-12-06T11:27:04.693Z,120.72
2022-12-06T11:29:32.616Z,134.15
2022-12-06T11:32:03.965Z,117.50
2022-12-06T11:34:36.792Z,120.10
2022-12-06T11:37:06.526Z,114.90
2022-12-06T11:39:34.889Z,109.30
2022-12-06T11:42:05.502Z,120.47
2022-12-06T11:44:46.289Z,115.93
2022-12-06T11:47:22.639Z,103.10
2022-12-06T11:49:52.424Z,110.00
2022-12-06T11:52:25.946Z,89.65
2022-12-06T11:54:58.757Z,93.82
2022-12-06T11:57:30.777Z,104.20
2022-12-06T12:00:14.364Z,71.13
2022-12-06T12:02:45.055Z,101.55
2022-12-06T12:05:19.540Z,94.55
2022-12-06T12:07:51.610Z,108.53
2022-12-06T12:10:28.839Z,114.35
2022-12-06T12:13:14.442Z,90.13
2022-12-06T12:15:51.100Z,106.65
2022-12-06T12:18:26.635Z,118.38
2022-12-06T12:20:55.869Z,79.97
2022-12-06T12:23:26.543Z,78.05
2022-12-06T12:26:02.766Z,81.03
2022-12-06T12:28:32.096Z,80.20
2022-12-06T12:31:00.934Z,104.75
2022-12-06T12:33:30.389Z,137.98
2022-12-06T12:36:15.787Z,153.35
2022-12-06T12:38:49.987Z,137.82
2022-12-06T12:41:27.219Z,197.93
2022-12-06T12:44:35.404Z,208.50
2022-12-06T12:46:53.396Z,191.35
2022-12-06T12:49:29.386Z,242.68
2022-12-06T12:51:57.917Z,230.60
2022-12-06T12:54:30.035Z,230.38
2022-12-06T12:57:03.317Z,229.23
2022-12-06T12:59:38.331Z,218.40
2022-12-06T13:02:16.582Z,200.18
2022-12-06T13:04:48.912Z,209.38
2022-12-06T13:07:28.452Z,222.60
2022-12-06T13:10:01.010Z,201.90
2022-12-06T13:12:34.078Z,206.50
2022-12-06T13:15:05.901Z,196.18
2022-12-06T13:17:36.872Z,187.05
2022-12-06T13:20:20.391Z,207.73
2022-12-06T13:22:53.745Z,228.20
2022-12-06T13:25:21.271Z,221.35
2022-12-06T13:27:55.237Z,232.45
2022-12-06T13:30:25.951Z,221.00
2022-12-06T13:32:56.102Z,138.20
2022-12-06T13:35:29.299Z,108.35
2022-12-06T13:37:58.566Z,101.13
2022-12-06T13:40:53.733Z,118.15
2022-12-06T13:43:49.802Z,91.97
2022-12-06T13:46:24.017Z,98.68
2022-12-06T13:48:53.107Z,94.18
2022-12-06T13:51:44.909Z,94.10
2022-12-06T13:54:36.178Z,96.95
2022-12-06T13:57:22.395Z,107.15
2022-12-06T13:59:50.223Z,98.45
2022-12-06T14:02:50.930Z,92.70
2022-12-06T14:08:32.850Z,96.85
2022-12-06T14:11:22.952Z,89.03
2022-12-06T14:14:01.504Z,91.07
2022-12-06T14:16:35.131Z,118.32
2022-12-06T14:19:05.302Z,93.93
2022-12-06T14:21:39.120Z,82.55
2022-12-06T14:24:08.132Z,92.68
2022-12-06T14:26:36.383Z,87.15
2022-12-06T14:29:03.975Z,114.00
2022-12-06T14:31:39.311Z,124.68
2022-12-06T14:34:06.871Z,109.80
2022-12-06T14:36:40.512Z,106.63
2022-12-06T14:39:17.164Z,94.10
2022-12-06T14:42:10.120Z,106.03
2022-12-06T14:44:37.725Z,89.93
2022-12-06T14:47:05.770Z,84.97
2022-12-06T14:52:23.244Z,75.53
2022-12-06T14:54:52.991Z,86.20
2022-12-06T14:57:25.919Z,67.20
2022-12-06T15:00:25.831Z,99.32
2022-12-06T15:03:01.605Z,95.22
2022-12-06T15:05:35.136Z,83.47
2022-12-06T15:08:30.176Z,108.35
2022-12-06T15:11:00.890Z,96.03
2022-12-06T15:13:29.443Z,86.22
2022-12-06T15:16:04.139Z,94.72
2022-12-06T15:18:34.199Z,89.80
2022-12-06T15:21:01.848Z,111.82
2022-12-06T15:23:32.106Z,113.65
2022-12-06T15:26:00.953Z,101.15
2022-12-06T15:28:28.449Z,105.72
2022-12-06T15:30:55.970Z,106.53
2022-12-06T15:33:27.208Z,111.25
2022-12-06T15:35:54.977Z,102.60
2022-12-06T15:38:22.495Z,96.80
2022-12-06T15:40:51.760Z,95.85
2022-12-06T15:43:28.724Z,98.72
2022-12-06T15:45:57.047Z,96.40
2022-12-06T15:48:24.766Z,102.07
2022-12-06T15:50:52.416Z,86.22
2022-12-06T15:53:23.173Z,93.00
2022-12-06T15:55:51.036Z,100.53
2022-12-06T15:58:18.505Z,79.15
2022-12-06T16:00:47.667Z,79.47
2022-12-06T16:03:15.376Z,69.65
2022-12-06T16:05:42.969Z,71.75
2022-12-06T16:08:10.501Z,69.88
2022-12-06T16:11:10.325Z,71.50
2022-12-06T16:13:25.888Z,76.30
2022-12-06T16:15:54.798Z,576.60
2022-12-06T16:18:22.581Z,95.50
2022-12-06T16:20:52.987Z,87.72
2022-12-06T16:24:11.489Z,1052.82
2022-12-06T16:26:29.421Z,576.72
2022-12-06T16:28:57.456Z,87.00
2022-12-06T16:33:54.903Z,93.10
2022-12-06T16:36:24.757Z,82.55
2022-12-06T16:38:54.851Z,81.32
2022-12-06T16:41:25.927Z,74.90
2022-12-06T16:43:53.651Z,70.80
2022-12-06T16:46:29.299Z,74.78
2022-12-06T16:49:15.787Z,80.43
2022-12-06T16:51:46.824Z,85.63
2022-12-06T16:54:14.359Z,77.68
2022-12-06T16:56:41.964Z,576.22
2022-12-06T16:59:13.908Z,588.65
2022-12-06T17:01:48.052Z,133.27
2022-12-06T17:04:15.547Z,146.60
2022-12-06T17:06:43.067Z,133.38
2022-12-06T17:09:11.817Z,117.25
2022-12-06T17:11:59.012Z,133.90
2022-12-06T17:14:27.034Z,125.47
2022-12-06T17:19:28.417Z,95.65
2022-12-06T17:21:56.737Z,112.85
2022-12-06T17:24:26.675Z,120.97
2022-12-06T17:26:55.177Z,1535.43
2022-12-06T17:29:24.217Z,1999.90
2022-12-06T17:31:52.303Z,1999.90
2022-12-06T17:34:21.899Z,1999.90
2022-12-06T17:36:50.483Z,1999.90
2022-12-06T17:39:19.984Z,1999.90
2022-12-06T17:42:05.387Z,1999.90
2022-12-06T17:44:33.947Z,137.18
2022-12-06T17:47:02.086Z,133.63
2022-12-06T17:49:31.294Z,1539.72
2022-12-06T17:51:58.950Z,1537.15
2022-12-06T17:54:26.459Z,1999.90
2022-12-06T17:56:56.160Z,603.90
2022-12-06T17:59:25.740Z,1536.00
2022-12-06T18:02:14.574Z,1999.90
2022-12-06T18:04:44.380Z,1999.90
2022-12-06T18:07:12.023Z,1538.70
2022-12-06T18:09:39.740Z,588.55
2022-12-06T18:12:09.056Z,605.78
2022-12-06T18:14:36.711Z,1526.63
2022-12-06T18:17:04.989Z,1999.90
2022-12-06T18:19:33.260Z,1999.90
2022-12-06T18:22:02.370Z,1999.90
2022-12-06T18:24:35.199Z,1999.90
2022-12-06T18:27:03.452Z,1999.90
2022-12-06T18:29:30.940Z,1999.90
2022-12-06T18:31:58.645Z,1999.90
2022-12-06T18:34:26.173Z,1999.90
2022-12-06T18:36:53.685Z,1999.90
2022-12-06T18:39:24.669Z,1999.90
2022-12-06T18:41:53.567Z,1999.90
2022-12-06T18:44:21.342Z,1999.90
2022-12-06T18:46:48.898Z,1999.90
2022-12-06T18:49:16.501Z,1999.90
2022-12-06T18:51:43.996Z,1999.90
2022-12-06T18:54:13.612Z,1999.90
2022-12-06T18:56:43.159Z,1999.90
2022-12-06T18:59:12.516Z,1999.90
2022-12-06T19:01:41.774Z,1999.90
2022-12-06T19:04:13.096Z,1999.90
2022-12-06T19:06:40.721Z,1999.90
2022-12-06T19:09:13.638Z,1999.90
2022-12-06T19:11:45.590Z,1999.90
2022-12-06T19:14:13.934Z,1999.90
2022-12-06T19:16:43.283Z,1999.90
2022-12-06T19:19:16.230Z,1999.90
2022-12-06T19:21:45.384Z,1999.90
2022-12-06T19:24:15.709Z,1999.90
2022-12-06T19:26:44.936Z,1999.90
2022-12-06T19:29:13.083Z,1999.90
2022-12-06T19:31:40.583Z,1999.90
2022-12-06T19:34:13.963Z,1999.90
2022-12-06T19:36:41.491Z,1999.90
2022-12-06T19:39:08.942Z,1999.90
2022-12-06T19:41:57.119Z,1999.90
2022-12-06T19:44:25.398Z,1999.90
2022-12-06T19:46:53.095Z,1999.90
2022-12-06T19:49:23.875Z,1999.90
2022-12-06T19:51:52.204Z,1999.90
2022-12-06T19:54:22.150Z,1999.90
2022-12-06T19:56:50.285Z,1999.90
2022-12-06T19:59:17.931Z,1999.90
2022-12-06T20:01:48.288Z,1999.90
2022-12-06T20:04:17.457Z,1999.90
2022-12-06T20:06:45.652Z,1999.90
2022-12-06T20:09:13.839Z,1999.90
2022-12-06T20:11:59.644Z,1999.90
2022-12-06T20:14:27.985Z,1999.90
2022-12-06T20:16:57.146Z,1999.90
2022-12-06T20:19:25.445Z,1999.90
2022-12-06T20:21:53.119Z,1999.90
2022-12-06T20:24:22.719Z,1999.90
2022-12-06T20:26:53.143Z,1999.90
2022-12-06T20:29:21.402Z,1999.90
2022-12-06T20:31:51.154Z,1999.90
2022-12-06T20:34:20.340Z,1999.90
2022-12-06T20:36:48.335Z,1999.90
2022-12-06T20:41:46.690Z,1999.90
2022-12-06T20:44:14.227Z,1999.90
2022-12-06T20:46:41.830Z,1999.90
2022-12-06T20:49:09.563Z,1999.90
2022-12-06T20:51:38.504Z,1999.90
2022-12-06T20:54:07.826Z,1999.90
2022-12-06T20:56:37.122Z,1999.90
2022-12-06T20:59:06.590Z,1999.90
2022-12-06T21:01:38.581Z,1999.90
2022-12-06T21:04:06.691Z,1999.90
2022-12-06T21:09:06.827Z,1999.90
2022-12-06T21:11:34.376Z,1999.90
2022-12-06T21:14:03.320Z,1999.90
2022-12-06T21:16:32.592Z,1999.90
2022-12-06T21:19:02.371Z,1999.90
2022-12-06T21:21:32.244Z,1999.90
2022-12-06T21:24:00.576Z,1999.90
2022-12-06T21:26:30.399Z,1999.90
2022-12-06T21:28:58.372Z,1999.90
2022-12-06T21:33:54.917Z,1999.90
2022-12-06T21:36:22.419Z,1999.90
2022-12-06T21:38:50.081Z,1999.90
2022-12-06T21:41:17.620Z,1999.90
2022-12-06T21:43:46.455Z,1999.90
2022-12-06T21:46:16.249Z,1999.90
2022-12-06T21:48:45.011Z,1999.90
2022-12-06T21:51:14.332Z,1999.90
2022-12-06T21:53:42.238Z,1999.90
2022-12-06T21:56:11.391Z,1999.90
2022-12-06T21:58:38.894Z,1999.90
2022-12-06T22:01:09.756Z,1999.90
2022-12-06T22:03:38.099Z,1999.90
2022-12-06T22:06:06.674Z,1999.90
2022-12-06T22:08:34.221Z,1999.90
2022-12-06T22:11:02.009Z,1999.90
2022-12-06T22:13:29.475Z,1999.90
2022-12-06T22:15:56.999Z,1999.90
2022-12-06T22:18:25.967Z,1999.90
2022-12-06T22:21:00.839Z,1999.90
2022-12-06T22:23:28.602Z,1999.90
2022-12-06T22:25:56.080Z,1999.90
2022-12-06T22:28:23.925Z,1999.90
2022-12-06T22:30:51.441Z,1999.90
2022-12-06T22:33:20.168Z,1999.90
2022-12-06T22:35:48.982Z,1999.90
2022-12-06T22:38:16.423Z,1999.90
2022-12-06T22:40:43.912Z,1999.90
2022-12-06T22:43:11.371Z,1999.90
2022-12-06T22:45:38.844Z,1999.90
2022-12-06T22:48:06.691Z,1999.90
2022-12-06T22:50:34.152Z,1999.90
2022-12-06T22:53:03.074Z,1999.90
2022-12-06T22:55:30.559Z,1999.90
2022-12-06T22:57:58.068Z,1999.90
2022-12-06T23:00:26.052Z,1999.90
2022-12-06T23:05:20.906Z,1999.90
2022-12-06T23:07:48.845Z,1999.90
2022-12-06T23:10:17.861Z,1999.90
2022-12-06T23:12:45.371Z,1999.90
2022-12-06T23:15:12.814Z,1999.90
2022-12-06T23:17:40.288Z,1999.90
2022-12-06T23:20:09.071Z,1999.90
2022-12-06T23:22:44.201Z,1999.90
2022-12-06T23:25:11.721Z,1999.90
2022-12-06T23:27:40.538Z,1999.90
2022-12-06T23:30:09.456Z,1999.90
2022-12-06T23:32:36.938Z,1999.90
2022-12-06T23:35:05.032Z,1999.90
2022-12-06T23:37:35.918Z,1999.90
2022-12-06T23:40:03.754Z,1999.90
2022-12-06T23:42:31.343Z,1999.90
2022-12-06T23:45:00.179Z,1999.90
2022-12-06T23:47:27.664Z,1999.90
2022-12-06T23:49:55.161Z,1999.90
2022-12-06T23:52:22.664Z,1999.90
2022-12-06T23:54:50.147Z,1999.90
2022-12-06T23:57:25.540Z,587.72
2022-12-06T23:59:53.010Z,1999.90
